sensor_id;sensor_type;location;lat;lon;timestamp;P1;durP1;ratioP1;P2;durP2;ratioP2
43449;SDS011;29041;42.266;23.110;2022-10-16T00:01:13;4.35;;;3.00;;
43449;SDS011;29041;42.266;23.110;2022-10-16T00:04:03;2.83;;;2.22;;
43449;SDS011;29041;42.266;23.110;2022-10-16T00:06:51;4.82;;;2.40;;
43449;SDS011;29041;42.266;23.110;2022-10-16T00:09:38;4.13;;;2.22;;
43449;SDS011;29041;42.266;23.110;2022-10-16T00:12:25;3.65;;;2.33;;
43449;SDS011;29041;42.266;23.110;2022-10-16T00:15:12;3.30;;;2.40;;
43449;SDS011;29041;42.266;23.110;2022-10-16T00:17:59;3.33;;;2.40;;
43449;SDS011;29041;42.266;23.110;2022-10-16T00:20:48;5.05;;;2.67;;
43449;SDS011;29041;42.266;23.110;2022-10-16T00:23:36;3.85;;;2.67;;
43449;SDS011;29041;42.266;23.110;2022-10-16T00:26:23;2.67;;;2.05;;
43449;SDS011;29041;42.266;23.110;2022-10-16T00:29:10;5.75;;;2.65;;
43449;SDS011;29041;42.266;23.110;2022-10-16T00:31:57;4.20;;;2.33;;
43449;SDS011;29041;42.266;23.110;2022-10-16T00:34:45;3.83;;;2.10;;
43449;SDS011;29041;42.266;23.110;2022-10-16T00:37:34;6.25;;;2.58;;
43449;SDS011;29041;42.266;23.110;2022-10-16T00:40:21;3.60;;;2.72;;
43449;SDS011;29041;42.266;23.110;2022-10-16T00:43:11;5.18;;;2.20;;
43449;SDS011;29041;42.266;23.110;2022-10-16T00:46:01;3.33;;;2.50;;
43449;SDS011;29041;42.266;23.110;2022-10-16T00:48:50;7.82;;;3.42;;
43449;SDS011;29041;42.266;23.110;2022-10-16T00:51:40;5.85;;;3.20;;
43449;SDS011;29041;42.266;23.110;2022-10-16T00:54:31;4.55;;;2.42;;
43449;SDS011;29041;42.266;23.110;2022-10-16T00:57:19;3.90;;;2.25;;
43449;SDS011;29041;42.266;23.110;2022-10-16T01:00:08;5.20;;;2.67;;
43449;SDS011;29041;42.266;23.110;2022-10-16T01:02:58;5.20;;;3.13;;
43449;SDS011;29041;42.266;23.110;2022-10-16T01:05:48;7.45;;;3.72;;
43449;SDS011;29041;42.266;23.110;2022-10-16T01:08:44;5.30;;;3.17;;
43449;SDS011;29041;42.266;23.110;2022-10-16T01:11:41;8.20;;;2.85;;
43449;SDS011;29041;42.266;23.110;2022-10-16T01:14:38;5.07;;;2.83;;
43449;SDS011;29041;42.266;23.110;2022-10-16T01:17:31;4.85;;;2.60;;
43449;SDS011;29041;42.266;23.110;2022-10-16T01:20:24;7.22;;;3.58;;
43449;SDS011;29041;42.266;23.110;2022-10-16T01:23:16;4.18;;;2.25;;
43449;SDS011;29041;42.266;23.110;2022-10-16T01:26:17;6.93;;;3.70;;
43449;SDS011;29041;42.266;23.110;2022-10-16T01:29:20;10.77;;;4.55;;
43449;SDS011;29041;42.266;23.110;2022-10-16T01:32:15;6.90;;;3.60;;
43449;SDS011;29041;42.266;23.110;2022-10-16T01:35:05;7.25;;;3.20;;
43449;SDS011;29041;42.266;23.110;2022-10-16T01:37:58;5.65;;;3.60;;
43449;SDS011;29041;42.266;23.110;2022-10-16T01:40:50;9.05;;;4.22;;
43449;SDS011;29041;42.266;23.110;2022-10-16T01:43:45;7.35;;;3.22;;
43449;SDS011;29041;42.266;23.110;2022-10-16T01:46:37;6.25;;;3.53;;
43449;SDS011;29041;42.266;23.110;2022-10-16T01:49:27;6.63;;;3.78;;
43449;SDS011;29041;42.266;23.110;2022-10-16T01:52:19;5.28;;;2.92;;
43449;SDS011;29041;42.266;23.110;2022-10-16T01:55:10;10.82;;;3.50;;
43449;SDS011;29041;42.266;23.110;2022-10-16T01:58:15;9.15;;;3.90;;
43449;SDS011;29041;42.266;23.110;2022-10-16T02:01:02;9.77;;;4.68;;
43449;SDS011;29041;42.266;23.110;2022-10-16T02:03:53;10.60;;;4.88;;
43449;SDS011;29041;42.266;23.110;2022-10-16T02:06:42;8.23;;;3.92;;
43449;SDS011;29041;42.266;23.110;2022-10-16T02:09:30;7.15;;;4.25;;
43449;SDS011;29041;42.266;23.110;2022-10-16T02:12:22;15.30;;;4.80;;
43449;SDS011;29041;42.266;23.110;2022-10-16T02:15:13;8.05;;;3.55;;
43449;SDS011;29041;42.266;23.110;2022-10-16T02:18:01;6.25;;;2.22;;
43449;SDS011;29041;42.266;23.110;2022-10-16T02:20:51;4.03;;;2.28;;
43449;SDS011;29041;42.266;23.110;2022-10-16T02:23:42;6.75;;;2.50;;
43449;SDS011;29041;42.266;23.110;2022-10-16T02:26:37;4.93;;;3.15;;
43449;SDS011;29041;42.266;23.110;2022-10-16T02:29:29;7.25;;;3.53;;
43449;SDS011;29041;42.266;23.110;2022-10-16T02:32:20;5.55;;;3.25;;
43449;SDS011;29041;42.266;23.110;2022-10-16T02:35:09;6.50;;;2.80;;
43449;SDS011;29041;42.266;23.110;2022-10-16T02:37:59;4.32;;;2.60;;
43449;SDS011;29041;42.266;23.110;2022-10-16T02:40:46;6.57;;;2.60;;
43449;SDS011;29041;42.266;23.110;2022-10-16T02:43:33;7.47;;;2.20;;
43449;SDS011;29041;42.266;23.110;2022-10-16T02:46:21;3.70;;;2.40;;
43449;SDS011;29041;42.266;23.110;2022-10-16T02:49:08;3.40;;;2.70;;
43449;SDS011;29041;42.266;23.110;2022-10-16T02:51:55;2.40;;;1.75;;
43449;SDS011;29041;42.266;23.110;2022-10-16T02:54:44;2.90;;;1.70;;
43449;SDS011;29041;42.266;23.110;2022-10-16T02:57:31;5.00;;;2.38;;
43449;SDS011;29041;42.266;23.110;2022-10-16T03:00:18;4.97;;;2.60;;
43449;SDS011;29041;42.266;23.110;2022-10-16T03:03:05;4.15;;;2.85;;
43449;SDS011;29041;42.266;23.110;2022-10-16T03:05:52;3.53;;;2.50;;
43449;SDS011;29041;42.266;23.110;2022-10-16T03:08:40;6.55;;;3.03;;
43449;SDS011;29041;42.266;23.110;2022-10-16T03:11:28;3.72;;;2.50;;
43449;SDS011;29041;42.266;23.110;2022-10-16T03:14:15;4.68;;;2.45;;
43449;SDS011;29041;42.266;23.110;2022-10-16T03:17:02;4.18;;;2.45;;
43449;SDS011;29041;42.266;23.110;2022-10-16T03:19:49;5.43;;;2.63;;
43449;SDS011;29041;42.266;23.110;2022-10-16T03:22:37;5.20;;;3.20;;
43449;SDS011;29041;42.266;23.110;2022-10-16T03:25:24;4.47;;;3.05;;
43449;SDS011;29041;42.266;23.110;2022-10-16T03:28:13;4.30;;;2.70;;
43449;SDS011;29041;42.266;23.110;2022-10-16T03:31:00;5.05;;;2.92;;
43449;SDS011;29041;42.266;23.110;2022-10-16T03:33:47;4.72;;;2.60;;
43449;SDS011;29041;42.266;23.110;2022-10-16T03:36:34;4.63;;;3.45;;
43449;SDS011;29041;42.266;23.110;2022-10-16T03:39:21;5.95;;;3.20;;
43449;SDS011;29041;42.266;23.110;2022-10-16T03:42:08;6.45;;;3.40;;
43449;SDS011;29041;42.266;23.110;2022-10-16T03:44:57;4.50;;;3.28;;
43449;SDS011;29041;42.266;23.110;2022-10-16T03:47:44;6.55;;;2.58;;
43449;SDS011;29041;42.266;23.110;2022-10-16T03:50:31;8.25;;;3.20;;
43449;SDS011;29041;42.266;23.110;2022-10-16T03:53:18;4.60;;;2.95;;
43449;SDS011;29041;42.266;23.110;2022-10-16T03:56:06;4.55;;;3.65;;
43449;SDS011;29041;42.266;23.110;2022-10-16T03:58:53;4.32;;;2.72;;
43449;SDS011;29041;42.266;23.110;2022-10-16T04:01:41;4.90;;;2.60;;
43449;SDS011;29041;42.266;23.110;2022-10-16T04:04:29;4.78;;;2.85;;
43449;SDS011;29041;42.266;23.110;2022-10-16T04:07:16;3.75;;;3.25;;
43449;SDS011;29041;42.266;23.110;2022-10-16T04:10:04;3.88;;;2.50;;
43449;SDS011;29041;42.266;23.110;2022-10-16T04:12:52;6.78;;;3.85;;
43449;SDS011;29041;42.266;23.110;2022-10-16T04:15:41;4.70;;;2.92;;
43449;SDS011;29041;42.266;23.110;2022-10-16T04:18:30;7.60;;;2.83;;
43449;SDS011;29041;42.266;23.110;2022-10-16T04:21:17;8.90;;;3.67;;
43449;SDS011;29041;42.266;23.110;2022-10-16T04:24:04;5.40;;;3.67;;
43449;SDS011;29041;42.266;23.110;2022-10-16T04:26:51;7.47;;;3.78;;
43449;SDS011;29041;42.266;23.110;2022-10-16T04:29:38;5.55;;;4.00;;
43449;SDS011;29041;42.266;23.110;2022-10-16T04:32:26;6.50;;;3.95;;
43449;SDS011;29041;42.266;23.110;2022-10-16T04:35:14;6.97;;;3.55;;
43449;SDS011;29041;42.266;23.110;2022-10-16T04:38:02;6.95;;;4.07;;
43449;SDS011;29041;42.266;23.110;2022-10-16T04:40:50;8.65;;;4.10;;
43449;SDS011;29041;42.266;23.110;2022-10-16T04:43:37;5.13;;;3.35;;
43449;SDS011;29041;42.266;23.110;2022-10-16T04:46:24;6.00;;;5.30;;
43449;SDS011;29041;42.266;23.110;2022-10-16T04:49:11;7.18;;;4.90;;
43449;SDS011;29041;42.266;23.110;2022-10-16T04:52:01;5.40;;;4.53;;
43449;SDS011;29041;42.266;23.110;2022-10-16T04:54:48;5.70;;;4.63;;
43449;SDS011;29041;42.266;23.110;2022-10-16T04:57:36;5.65;;;4.45;;
43449;SDS011;29041;42.266;23.110;2022-10-16T05:00:23;6.25;;;3.83;;
43449;SDS011;29041;42.266;23.110;2022-10-16T05:03:10;5.65;;;3.58;;
43449;SDS011;29041;42.266;23.110;2022-10-16T05:05:57;9.18;;;4.80;;
43449;SDS011;29041;42.266;23.110;2022-10-16T05:08:46;7.22;;;3.80;;
43449;SDS011;29041;42.266;23.110;2022-10-16T05:11:33;6.95;;;4.00;;
43449;SDS011;29041;42.266;23.110;2022-10-16T05:14:21;9.70;;;5.55;;
43449;SDS011;29041;42.266;23.110;2022-10-16T05:17:08;7.97;;;4.65;;
43449;SDS011;29041;42.266;23.110;2022-10-16T05:19:55;8.93;;;4.65;;
43449;SDS011;29041;42.266;23.110;2022-10-16T05:22:42;5.95;;;4.35;;
43449;SDS011;29041;42.266;23.110;2022-10-16T05:25:31;7.63;;;4.18;;
43449;SDS011;29041;42.266;23.110;2022-10-16T05:28:20;8.10;;;4.82;;
43449;SDS011;29041;42.266;23.110;2022-10-16T05:31:07;5.53;;;3.83;;
43449;SDS011;29041;42.266;23.110;2022-10-16T05:33:57;6.80;;;4.20;;
43449;SDS011;29041;42.266;23.110;2022-10-16T05:36:45;7.55;;;4.15;;
43449;SDS011;29041;42.266;23.110;2022-10-16T05:39:32;7.68;;;4.28;;
43449;SDS011;29041;42.266;23.110;2022-10-16T05:42:21;9.15;;;6.07;;
43449;SDS011;29041;42.266;23.110;2022-10-16T05:45:09;10.48;;;4.80;;
43449;SDS011;29041;42.266;23.110;2022-10-16T05:47:57;5.68;;;5.00;;
43449;SDS011;29041;42.266;23.110;2022-10-16T05:50:44;6.25;;;3.95;;
43449;SDS011;29041;42.266;23.110;2022-10-16T05:53:32;6.20;;;4.82;;
43449;SDS011;29041;42.266;23.110;2022-10-16T05:56:29;6.13;;;3.97;;
43449;SDS011;29041;42.266;23.110;2022-10-16T05:59:21;7.40;;;4.60;;
43449;SDS011;29041;42.266;23.110;2022-10-16T06:02:08;6.28;;;4.07;;
43449;SDS011;29041;42.266;23.110;2022-10-16T06:04:59;8.25;;;5.43;;
43449;SDS011;29041;42.266;23.110;2022-10-16T06:07:47;8.27;;;4.97;;
43449;SDS011;29041;42.266;23.110;2022-10-16T06:10:34;5.07;;;3.90;;
43449;SDS011;29041;42.266;23.110;2022-10-16T06:13:21;6.97;;;3.58;;
43449;SDS011;29041;42.266;23.110;2022-10-16T06:16:11;6.32;;;4.28;;
43449;SDS011;29041;42.266;23.110;2022-10-16T06:18:59;5.93;;;3.53;;
43449;SDS011;29041;42.266;23.110;2022-10-16T06:21:51;6.75;;;3.13;;
43449;SDS011;29041;42.266;23.110;2022-10-16T06:24:38;4.93;;;2.88;;
43449;SDS011;29041;42.266;23.110;2022-10-16T06:27:25;5.30;;;2.97;;
43449;SDS011;29041;42.266;23.110;2022-10-16T06:30:12;4.10;;;2.38;;
43449;SDS011;29041;42.266;23.110;2022-10-16T06:33:01;8.07;;;4.15;;
43449;SDS011;29041;42.266;23.110;2022-10-16T06:35:48;4.88;;;2.88;;
43449;SDS011;29041;42.266;23.110;2022-10-16T06:38:36;4.35;;;2.63;;
43449;SDS011;29041;42.266;23.110;2022-10-16T06:41:23;4.38;;;2.75;;
43449;SDS011;29041;42.266;23.110;2022-10-16T06:44:10;7.25;;;3.78;;
43449;SDS011;29041;42.266;23.110;2022-10-16T06:46:58;5.85;;;2.95;;
43449;SDS011;29041;42.266;23.110;2022-10-16T06:49:46;3.97;;;2.70;;
43449;SDS011;29041;42.266;23.110;2022-10-16T06:52:33;6.93;;;3.55;;
43449;SDS011;29041;42.266;23.110;2022-10-16T06:55:21;12.85;;;6.93;;
43449;SDS011;29041;42.266;23.110;2022-10-16T06:58:08;6.00;;;2.90;;
43449;SDS011;29041;42.266;23.110;2022-10-16T07:00:55;10.95;;;3.58;;
43449;SDS011;29041;42.266;23.110;2022-10-16T07:03:43;4.30;;;3.20;;
43449;SDS011;29041;42.266;23.110;2022-10-16T07:06:33;5.10;;;3.60;;
43449;SDS011;29041;42.266;23.110;2022-10-16T07:09:24;7.40;;;2.92;;
43449;SDS011;29041;42.266;23.110;2022-10-16T07:12:11;3.72;;;2.42;;
43449;SDS011;29041;42.266;23.110;2022-10-16T07:14:58;4.90;;;3.17;;
43449;SDS011;29041;42.266;23.110;2022-10-16T07:17:45;8.57;;;3.53;;
43449;SDS011;29041;42.266;23.110;2022-10-16T07:20:33;5.15;;;3.95;;
43449;SDS011;29041;42.266;23.110;2022-10-16T07:23:21;6.85;;;3.30;;
43449;SDS011;29041;42.266;23.110;2022-10-16T07:26:09;5.75;;;3.10;;
43449;SDS011;29041;42.266;23.110;2022-10-16T07:28:56;7.10;;;3.80;;
43449;SDS011;29041;42.266;23.110;2022-10-16T07:31:44;9.65;;;4.78;;
43449;SDS011;29041;42.266;23.110;2022-10-16T07:34:31;11.27;;;4.47;;
43449;SDS011;29041;42.266;23.110;2022-10-16T07:37:18;8.30;;;5.13;;
43449;SDS011;29041;42.266;23.110;2022-10-16T07:40:08;13.60;;;5.15;;
43449;SDS011;29041;42.266;23.110;2022-10-16T07:42:56;20.58;;;5.20;;
43449;SDS011;29041;42.266;23.110;2022-10-16T07:45:46;12.07;;;4.00;;
43449;SDS011;29041;42.266;23.110;2022-10-16T07:48:35;13.75;;;5.53;;
43449;SDS011;29041;42.266;23.110;2022-10-16T07:51:22;7.03;;;3.70;;
43449;SDS011;29041;42.266;23.110;2022-10-16T07:54:11;16.98;;;5.97;;
43449;SDS011;29041;42.266;23.110;2022-10-16T07:57:00;8.52;;;4.00;;
43449;SDS011;29041;42.266;23.110;2022-10-16T07:59:47;12.65;;;4.53;;
43449;SDS011;29041;42.266;23.110;2022-10-16T08:02:37;9.00;;;3.75;;
43449;SDS011;29041;42.266;23.110;2022-10-16T08:05:25;10.27;;;3.60;;
43449;SDS011;29041;42.266;23.110;2022-10-16T08:08:13;8.57;;;3.65;;
43449;SDS011;29041;42.266;23.110;2022-10-16T08:11:01;9.20;;;4.13;;
43449;SDS011;29041;42.266;23.110;2022-10-16T08:13:51;7.55;;;4.30;;
43449;SDS011;29041;42.266;23.110;2022-10-16T08:16:38;8.30;;;4.00;;
43449;SDS011;29041;42.266;23.110;2022-10-16T08:19:39;5.57;;;3.80;;
43449;SDS011;29041;42.266;23.110;2022-10-16T08:22:32;12.52;;;5.22;;
43449;SDS011;29041;42.266;23.110;2022-10-16T08:25:20;5.80;;;3.22;;
43449;SDS011;29041;42.266;23.110;2022-10-16T08:28:08;15.50;;;3.92;;
43449;SDS011;29041;42.266;23.110;2022-10-16T08:31:05;8.10;;;3.95;;
43449;SDS011;29041;42.266;23.110;2022-10-16T08:33:53;7.65;;;3.25;;
43449;SDS011;29041;42.266;23.110;2022-10-16T08:36:41;8.85;;;5.35;;
43449;SDS011;29041;42.266;23.110;2022-10-16T08:39:28;12.68;;;4.55;;
43449;SDS011;29041;42.266;23.110;2022-10-16T08:42:18;14.15;;;5.20;;
43449;SDS011;29041;42.266;23.110;2022-10-16T08:45:20;7.50;;;4.15;;
43449;SDS011;29041;42.266;23.110;2022-10-16T08:48:27;6.93;;;3.20;;
43449;SDS011;29041;42.266;23.110;2022-10-16T08:51:21;6.72;;;4.63;;
43449;SDS011;29041;42.266;23.110;2022-10-16T08:54:15;5.95;;;4.32;;
43449;SDS011;29041;42.266;23.110;2022-10-16T08:57:14;18.30;;;10.93;;
43449;SDS011;29041;42.266;23.110;2022-10-16T09:00:11;24.58;;;8.55;;
43449;SDS011;29041;42.266;23.110;2022-10-16T09:03:03;14.25;;;7.22;;
43449;SDS011;29041;42.266;23.110;2022-10-16T09:06:03;10.70;;;5.13;;
43449;SDS011;29041;42.266;23.110;2022-10-16T09:09:02;10.07;;;4.60;;
43449;SDS011;29041;42.266;23.110;2022-10-16T09:12:02;5.78;;;4.20;;
43449;SDS011;29041;42.266;23.110;2022-10-16T09:15:01;10.07;;;4.70;;
43449;SDS011;29041;42.266;23.110;2022-10-16T09:17:59;8.35;;;3.40;;
43449;SDS011;29041;42.266;23.110;2022-10-16T09:20:53;6.55;;;2.92;;
43449;SDS011;29041;42.266;23.110;2022-10-16T09:23:47;5.00;;;3.38;;
43449;SDS011;29041;42.266;23.110;2022-10-16T09:26:34;4.88;;;3.15;;
43449;SDS011;29041;42.266;23.110;2022-10-16T09:29:21;5.57;;;3.20;;
43449;SDS011;29041;42.266;23.110;2022-10-16T09:32:11;4.40;;;2.85;;
43449;SDS011;29041;42.266;23.110;2022-10-16T09:35:00;4.80;;;3.30;;
43449;SDS011;29041;42.266;23.110;2022-10-16T09:37:49;4.78;;;2.55;;
43449;SDS011;29041;42.266;23.110;2022-10-16T09:40:41;4.35;;;2.55;;
43449;SDS011;29041;42.266;23.110;2022-10-16T09:43:32;4.38;;;3.00;;
43449;SDS011;29041;42.266;23.110;2022-10-16T09:46:26;5.03;;;2.53;;
43449;SDS011;29041;42.266;23.110;2022-10-16T09:49:21;3.33;;;2.22;;
43449;SDS011;29041;42.266;23.110;2022-10-16T09:52:11;3.47;;;2.30;;
43449;SDS011;29041;42.266;23.110;2022-10-16T09:55:00;5.57;;;2.90;;
43449;SDS011;29041;42.266;23.110;2022-10-16T09:57:51;5.88;;;2.63;;
43449;SDS011;29041;42.266;23.110;2022-10-16T10:00:38;3.53;;;3.03;;
43449;SDS011;29041;42.266;23.110;2022-10-16T10:03:38;3.38;;;2.00;;
43449;SDS011;29041;42.266;23.110;2022-10-16T10:06:28;4.75;;;2.50;;
43449;SDS011;29041;42.266;23.110;2022-10-16T10:09:17;4.03;;;2.78;;
43449;SDS011;29041;42.266;23.110;2022-10-16T10:12:14;3.85;;;2.58;;
43449;SDS011;29041;42.266;23.110;2022-10-16T10:15:07;3.85;;;2.40;;
43449;SDS011;29041;42.266;23.110;2022-10-16T10:17:58;4.78;;;2.42;;
43449;SDS011;29041;42.266;23.110;2022-10-16T10:20:46;7.15;;;2.88;;
43449;SDS011;29041;42.266;23.110;2022-10-16T10:23:44;2.80;;;2.30;;
43449;SDS011;29041;42.266;23.110;2022-10-16T10:26:44;3.75;;;2.63;;
43449;SDS011;29041;42.266;23.110;2022-10-16T10:29:41;5.53;;;2.60;;
43449;SDS011;29041;42.266;23.110;2022-10-16T10:32:42;5.10;;;3.17;;
43449;SDS011;29041;42.266;23.110;2022-10-16T10:35:38;5.10;;;2.50;;
43449;SDS011;29041;42.266;23.110;2022-10-16T10:38:34;3.78;;;2.10;;
43449;SDS011;29041;42.266;23.110;2022-10-16T10:41:38;3.22;;;2.63;;
43449;SDS011;29041;42.266;23.110;2022-10-16T10:44:50;2.72;;;2.15;;
43449;SDS011;29041;42.266;23.110;2022-10-16T10:48:06;5.38;;;2.00;;
43449;SDS011;29041;42.266;23.110;2022-10-16T10:51:07;7.28;;;1.92;;
43449;SDS011;29041;42.266;23.110;2022-10-16T10:54:02;4.05;;;2.72;;
43449;SDS011;29041;42.266;23.110;2022-10-16T10:57:00;5.10;;;2.25;;
43449;SDS011;29041;42.266;23.110;2022-10-16T10:59:56;4.30;;;3.13;;
43449;SDS011;29041;42.266;23.110;2022-10-16T11:02:53;3.58;;;2.13;;
43449;SDS011;29041;42.266;23.110;2022-10-16T11:05:54;3.78;;;2.30;;
43449;SDS011;29041;42.266;23.110;2022-10-16T11:08:45;4.97;;;2.22;;
43449;SDS011;29041;42.266;23.110;2022-10-16T11:11:38;5.18;;;2.80;;
43449;SDS011;29041;42.266;23.110;2022-10-16T11:14:31;5.00;;;2.30;;
43449;SDS011;29041;42.266;23.110;2022-10-16T11:17:22;4.32;;;2.25;;
43449;SDS011;29041;42.266;23.110;2022-10-16T11:20:13;5.60;;;2.28;;
43449;SDS011;29041;42.266;23.110;2022-10-16T11:23:07;3.55;;;2.28;;
43449;SDS011;29041;42.266;23.110;2022-10-16T11:26:02;3.70;;;1.70;;
43449;SDS011;29041;42.266;23.110;2022-10-16T11:28:53;2.70;;;2.17;;
43449;SDS011;29041;42.266;23.110;2022-10-16T11:31:45;3.38;;;1.75;;
43449;SDS011;29041;42.266;23.110;2022-10-16T11:34:38;2.58;;;2.17;;
43449;SDS011;29041;42.266;23.110;2022-10-16T11:37:36;3.83;;;2.05;;
43449;SDS011;29041;42.266;23.110;2022-10-16T11:40:30;4.10;;;2.05;;
43449;SDS011;29041;42.266;23.110;2022-10-16T11:46:12;3.00;;;2.17;;
43449;SDS011;29041;42.266;23.110;2022-10-16T11:49:03;2.63;;;1.63;;
43449;SDS011;29041;42.266;23.110;2022-10-16T11:51:59;3.03;;;1.48;;
43449;SDS011;29041;42.266;23.110;2022-10-16T11:54:52;4.32;;;1.60;;
43449;SDS011;29041;42.266;23.110;2022-10-16T12:00:37;3.60;;;1.92;;
43449;SDS011;29041;42.266;23.110;2022-10-16T12:03:29;3.38;;;1.85;;
43449;SDS011;29041;42.266;23.110;2022-10-16T12:06:23;2.40;;;1.20;;
43449;SDS011;29041;42.266;23.110;2022-10-16T12:09:19;2.83;;;1.50;;
43449;SDS011;29041;42.266;23.110;2022-10-16T12:12:25;2.15;;;1.60;;
43449;SDS011;29041;42.266;23.110;2022-10-16T12:15:21;2.25;;;1.60;;
43449;SDS011;29041;42.266;23.110;2022-10-16T12:18:20;2.10;;;1.65;;
43449;SDS011;29041;42.266;23.110;2022-10-16T12:21:09;2.67;;;1.73;;
43449;SDS011;29041;42.266;23.110;2022-10-16T12:24:02;2.00;;;1.42;;
43449;SDS011;29041;42.266;23.110;2022-10-16T12:26:50;2.70;;;1.50;;
43449;SDS011;29041;42.266;23.110;2022-10-16T12:29:39;2.78;;;1.42;;
43449;SDS011;29041;42.266;23.110;2022-10-16T12:32:31;1.95;;;1.42;;
43449;SDS011;29041;42.266;23.110;2022-10-16T12:35:21;1.60;;;1.13;;
43449;SDS011;29041;42.266;23.110;2022-10-16T12:38:17;2.50;;;1.60;;
43449;SDS011;29041;42.266;23.110;2022-10-16T12:41:07;2.03;;;1.35;;
43449;SDS011;29041;42.266;23.110;2022-10-16T12:43:56;1.90;;;1.60;;
43449;SDS011;29041;42.266;23.110;2022-10-16T12:46:44;2.80;;;1.90;;
43449;SDS011;29041;42.266;23.110;2022-10-16T12:49:35;3.25;;;1.50;;
43449;SDS011;29041;42.266;23.110;2022-10-16T12:52:26;2.03;;;1.50;;
43449;SDS011;29041;42.266;23.110;2022-10-16T12:55:15;3.22;;;1.08;;
43449;SDS011;29041;42.266;23.110;2022-10-16T12:58:07;2.28;;;1.58;;
43449;SDS011;29041;42.266;23.110;2022-10-16T13:01:10;1.80;;;1.08;;
43449;SDS011;29041;42.266;23.110;2022-10-16T13:04:10;1.55;;;0.95;;
43449;SDS011;29041;42.266;23.110;2022-10-16T13:07:21;1.33;;;1.02;;
43449;SDS011;29041;42.266;23.110;2022-10-16T13:10:25;1.73;;;1.45;;
43449;SDS011;29041;42.266;23.110;2022-10-16T13:13:29;1.73;;;0.90;;
43449;SDS011;29041;42.266;23.110;2022-10-16T13:16:37;1.48;;;0.95;;
43449;SDS011;29041;42.266;23.110;2022-10-16T13:19:36;1.60;;;1.17;;
43449;SDS011;29041;42.266;23.110;2022-10-16T13:22:33;3.20;;;1.25;;
43449;SDS011;29041;42.266;23.110;2022-10-16T13:25:35;2.45;;;1.73;;
43449;SDS011;29041;42.266;23.110;2022-10-16T13:28:33;3.17;;;1.73;;
43449;SDS011;29041;42.266;23.110;2022-10-16T13:31:23;4.97;;;0.98;;
43449;SDS011;29041;42.266;23.110;2022-10-16T13:34:12;1.52;;;1.10;;
43449;SDS011;29041;42.266;23.110;2022-10-16T13:37:15;2.38;;;1.52;;
43449;SDS011;29041;42.266;23.110;2022-10-16T13:40:11;2.20;;;0.90;;
43449;SDS011;29041;42.266;23.110;2022-10-16T13:43:07;7.17;;;2.70;;
43449;SDS011;29041;42.266;23.110;2022-10-16T13:45:56;1.50;;;1.20;;
43449;SDS011;29041;42.266;23.110;2022-10-16T13:48:56;2.60;;;1.20;;
43449;SDS011;29041;42.266;23.110;2022-10-16T13:51:53;2.05;;;1.30;;
43449;SDS011;29041;42.266;23.110;2022-10-16T13:54:41;3.90;;;2.35;;
43449;SDS011;29041;42.266;23.110;2022-10-16T13:57:30;2.10;;;1.52;;
43449;SDS011;29041;42.266;23.110;2022-10-16T14:00:18;2.92;;;1.88;;
43449;SDS011;29041;42.266;23.110;2022-10-16T14:03:12;2.35;;;1.40;;
43449;SDS011;29041;42.266;23.110;2022-10-16T14:06:02;1.60;;;1.00;;
43449;SDS011;29041;42.266;23.110;2022-10-16T14:08:55;4.25;;;1.35;;
43449;SDS011;29041;42.266;23.110;2022-10-16T14:11:46;1.42;;;1.30;;
43449;SDS011;29041;42.266;23.110;2022-10-16T14:14:40;1.10;;;0.90;;
43449;SDS011;29041;42.266;23.110;2022-10-16T14:17:31;1.58;;;1.15;;
43449;SDS011;29041;42.266;23.110;2022-10-16T14:20:21;1.50;;;1.10;;
43449;SDS011;29041;42.266;23.110;2022-10-16T14:23:20;1.38;;;0.73;;
43449;SDS011;29041;42.266;23.110;2022-10-16T14:26:12;1.95;;;1.40;;
43449;SDS011;29041;42.266;23.110;2022-10-16T14:29:02;2.22;;;0.90;;
43449;SDS011;29041;42.266;23.110;2022-10-16T14:31:58;2.58;;;1.25;;
43449;SDS011;29041;42.266;23.110;2022-10-16T14:34:52;1.88;;;1.65;;
43449;SDS011;29041;42.266;23.110;2022-10-16T14:37:40;2.45;;;1.33;;
43449;SDS011;29041;42.266;23.110;2022-10-16T14:40:28;2.65;;;1.13;;
43449;SDS011;29041;42.266;23.110;2022-10-16T14:43:19;2.15;;;1.33;;
43449;SDS011;29041;42.266;23.110;2022-10-16T14:46:09;4.47;;;1.50;;
43449;SDS011;29041;42.266;23.110;2022-10-16T14:49:03;1.67;;;1.15;;
43449;SDS011;29041;42.266;23.110;2022-10-16T14:52:01;2.92;;;1.33;;
43449;SDS011;29041;42.266;23.110;2022-10-16T14:54:51;1.77;;;1.45;;
43449;SDS011;29041;42.266;23.110;2022-10-16T14:57:40;1.88;;;1.20;;
43449;SDS011;29041;42.266;23.110;2022-10-16T15:00:29;3.65;;;1.83;;
43449;SDS011;29041;42.266;23.110;2022-10-16T15:03:18;3.00;;;1.40;;
43449;SDS011;29041;42.266;23.110;2022-10-16T15:06:10;1.63;;;1.15;;
43449;SDS011;29041;42.266;23.110;2022-10-16T15:08:57;2.47;;;1.20;;
43449;SDS011;29041;42.266;23.110;2022-10-16T15:11:44;4.38;;;1.70;;
43449;SDS011;29041;42.266;23.110;2022-10-16T15:14:32;2.85;;;1.40;;
43449;SDS011;29041;42.266;23.110;2022-10-16T15:17:19;1.73;;;1.25;;
43449;SDS011;29041;42.266;23.110;2022-10-16T15:20:06;2.05;;;1.30;;
43449;SDS011;29041;42.266;23.110;2022-10-16T15:22:55;4.80;;;1.65;;
43449;SDS011;29041;42.266;23.110;2022-10-16T15:25:44;4.05;;;2.58;;
43449;SDS011;29041;42.266;23.110;2022-10-16T15:28:32;5.30;;;1.50;;
43449;SDS011;29041;42.266;23.110;2022-10-16T15:31:20;2.70;;;2.20;;
43449;SDS011;29041;42.266;23.110;2022-10-16T15:34:08;4.18;;;2.42;;
43449;SDS011;29041;42.266;23.110;2022-10-16T15:36:56;4.05;;;2.00;;
43449;SDS011;29041;42.266;23.110;2022-10-16T15:39:46;3.35;;;1.67;;
43449;SDS011;29041;42.266;23.110;2022-10-16T15:42:33;3.97;;;1.92;;
43449;SDS011;29041;42.266;23.110;2022-10-16T15:45:20;3.58;;;2.20;;
43449;SDS011;29041;42.266;23.110;2022-10-16T15:48:09;2.53;;;1.73;;
43449;SDS011;29041;42.266;23.110;2022-10-16T15:50:57;5.10;;;2.03;;
43449;SDS011;29041;42.266;23.110;2022-10-16T15:53:45;4.85;;;1.98;;
43449;SDS011;29041;42.266;23.110;2022-10-16T15:56:33;3.42;;;2.38;;
43449;SDS011;29041;42.266;23.110;2022-10-16T15:59:22;14.98;;;5.40;;
43449;SDS011;29041;42.266;23.110;2022-10-16T16:02:09;15.18;;;5.18;;
43449;SDS011;29041;42.266;23.110;2022-10-16T16:04:57;57.40;;;19.50;;
43449;SDS011;29041;42.266;23.110;2022-10-16T16:07:44;7.43;;;3.88;;
43449;SDS011;29041;42.266;23.110;2022-10-16T16:10:31;4.05;;;2.00;;
43449;SDS011;29041;42.266;23.110;2022-10-16T16:13:20;6.78;;;2.65;;
43449;SDS011;29041;42.266;23.110;2022-10-16T16:16:07;3.63;;;2.10;;
43449;SDS011;29041;42.266;23.110;2022-10-16T16:18:55;3.80;;;2.72;;
43449;SDS011;29041;42.266;23.110;2022-10-16T16:21:42;8.07;;;3.03;;
43449;SDS011;29041;42.266;23.110;2022-10-16T16:24:29;5.45;;;3.25;;
43449;SDS011;29041;42.266;23.110;2022-10-16T16:27:16;6.30;;;3.22;;
43449;SDS011;29041;42.266;23.110;2022-10-16T16:30:07;5.00;;;3.75;;
43449;SDS011;29041;42.266;23.110;2022-10-16T16:32:56;6.85;;;3.40;;
43449;SDS011;29041;42.266;23.110;2022-10-16T16:35:43;4.63;;;2.85;;
43449;SDS011;29041;42.266;23.110;2022-10-16T16:38:31;6.97;;;3.03;;
43449;SDS011;29041;42.266;23.110;2022-10-16T16:41:19;5.32;;;2.85;;
43449;SDS011;29041;42.266;23.110;2022-10-16T16:44:08;4.43;;;2.63;;
43449;SDS011;29041;42.266;23.110;2022-10-16T16:46:59;4.40;;;2.53;;
43449;SDS011;29041;42.266;23.110;2022-10-16T16:49:46;5.35;;;3.75;;
43449;SDS011;29041;42.266;23.110;2022-10-16T16:52:33;3.92;;;1.83;;
43449;SDS011;29041;42.266;23.110;2022-10-16T16:55:20;4.00;;;2.53;;
43449;SDS011;29041;42.266;23.110;2022-10-16T16:58:08;5.18;;;2.70;;